Nisshoumaru — JD3093 — position and weather

sailwx.info

Track history (hours):
 
Tides and Currents Weather Stations Pressure Air Temp Water Temp Dewpoint Dewpoint Depression Visibility Wind Speed Wind Dir Waves Ship Positions

Nisshoumaru

Last reported at 2015-Apr-19 12:31 UTC. Time now 2015-Apr-19 12:37 UTC.
Position N 34°35' E 135°27'.

Length 76 m; draft 4 m.

Type: Cargo ship. MMSI: 431001549.

Date/timePositionNaut miles runAvg speedWind from/ knotsBaromVisibWave heightAir tempDewpointWater temp
2015-Apr-19 12:31N 34°35' E 135°27'0 0.0
2015-Apr-19 10:27N 34°35' E 135°27'0 0.0
2015-Apr-19 09:29N 34°35' E 135°27'0 0.0
2015-Apr-19 01:16N 34°35' E 135°27'0 0.0
2015-Apr-19 00:24N 34°35' E 135°27'0 0.0
2015-Apr-18 22:33N 34°35' E 135°27'0 0.0
2015-Apr-18 17:22N 34°35' E 135°27'0 0.0
2015-Apr-18 16:33N 34°35' E 135°27'0 0.0
2015-Apr-18 15:23N 34°35' E 135°27'0 0.0
2015-Apr-18 12:33N 34°35' E 135°27'8 8.3
2015-Apr-18 11:33N 34°33' E 135°18'1313.3
2015-Apr-18 10:33N 34°23' E 135°07'8 8.0
2015-Apr-18 09:34N 34°15' E 135°07'0 0.1
2015-Apr-18 08:33N 34°15' E 135°07'0 0.0
2015-Apr-18 07:33N 34°15' E 135°07'0 0.0
2015-Apr-18 06:33N 34°15' E 135°07'0 0.0
2015-Apr-18 05:32N 34°15' E 135°07'0 0.1
2015-Apr-18 04:33N 34°15' E 135°07'0 0.0
2015-Apr-18 03:32N 34°15' E 135°07'0 0.0
2015-Apr-18 02:33N 34°15' E 135°07'0 0.0
2015-Apr-18 01:33N 34°15' E 135°07'1 1.3
2015-Apr-18 00:33N 34°15' E 135°06'0 0.0
2015-Apr-17 23:33N 34°15' E 135°06'0 0.1
2015-Apr-17 22:33N 34°15' E 135°06'0 0.0
2015-Apr-17 21:33N 34°15' E 135°06'0 0.0
2015-Apr-17 20:33N 34°15' E 135°06'0 0.0
2015-Apr-17 19:33N 34°15' E 135°06'0 0.0
2015-Apr-17 18:33N 34°15' E 135°06'0 0.0
2015-Apr-17 17:33N 34°15' E 135°06'0 0.0
2015-Apr-17 16:33N 34°15' E 135°06'0 0.0
2015-Apr-17 15:34N 34°15' E 135°06'0 0.0
2015-Apr-17 14:33N 34°15' E 135°06'0 0.0
2015-Apr-17 13:33N 34°15' E 135°06'6 6.5
2015-Apr-17 12:33N 34°09' E 135°04'  
2015-Apr-10 11:10N 34°54' E 139°43'1212.0
2015-Apr-10 10:12N 34°53' E 139°57'812.3
2015-Apr-10 09:32N 34°58' E 140°06'1312.7
2015-Apr-10 08:32N 35°05' E 140°19'1312.4
2015-Apr-10 07:29N 35°14' E 140°30'1212.3
2015-Apr-10 06:29N 35°23' E 140°40'3210.0
2015-Apr-10 03:14N 35°55' E 140°46'5 6.3
2015-Apr-10 02:27N 35°56' E 140°40'0 0.1
2015-Apr-10 01:21N 35°56' E 140°40'0 0.0
2015-Apr-10 00:32N 35°56' E 140°40'0 0.0
2015-Apr-09 23:32N 35°56' E 140°40'0 0.1
2015-Apr-09 22:31N 35°56' E 140°40'0 0.1
2015-Apr-09 21:32N 35°56' E 140°40'0 0.1
2015-Apr-09 20:30N 35°56' E 140°40'0 0.0
2015-Apr-09 19:33N 35°56' E 140°40'0 0.0
2015-Apr-09 18:33N 35°56' E 140°40'0 0.0
2015-Apr-09 17:31N 35°56' E 140°40'0 0.1
2015-Apr-09 16:32N 35°56' E 140°40'0 0.1
2015-Apr-09 15:33N 35°56' E 140°40'0 0.2
2015-Apr-09 14:29N 35°55' E 140°40'0 0.2
2015-Apr-09 13:33N 35°55' E 140°40'0 0.0
2015-Apr-09 12:31N 35°55' E 140°40'  
Track history (hours):
 
Tides and Currents Weather Stations Pressure Air Temp Water Temp Dewpoint Dewpoint Depression Visibility Wind Speed Wind Dir Waves Ship Positions

Nisshoumaru

Last reported at 2015-Apr-19 12:31 UTC. Time now 2015-Apr-19 12:37 UTC.
Position N 34°35' E 135°27'.

Length 76 m; draft 4 m.

Type: Cargo ship. MMSI: 431001549.

Date/timePositionNaut miles runAvg speedWind from/ knotsBaromVisibWave heightAir tempDewpointWater temp
2015-Apr-19 12:31N 34°35' E 135°27'0 0.0
2015-Apr-19 10:27N 34°35' E 135°27'0 0.0
2015-Apr-19 09:29N 34°35' E 135°27'0 0.0
2015-Apr-19 01:16N 34°35' E 135°27'0 0.0
2015-Apr-19 00:24N 34°35' E 135°27'0 0.0
2015-Apr-18 22:33N 34°35' E 135°27'0 0.0
2015-Apr-18 17:22N 34°35' E 135°27'0 0.0
2015-Apr-18 16:33N 34°35' E 135°27'0 0.0
2015-Apr-18 15:23N 34°35' E 135°27'0 0.0
2015-Apr-18 12:33N 34°35' E 135°27'8 8.3
2015-Apr-18 11:33N 34°33' E 135°18'1313.3
2015-Apr-18 10:33N 34°23' E 135°07'8 8.0
2015-Apr-18 09:34N 34°15' E 135°07'0 0.1
2015-Apr-18 08:33N 34°15' E 135°07'0 0.0
2015-Apr-18 07:33N 34°15' E 135°07'0 0.0
2015-Apr-18 06:33N 34°15' E 135°07'0 0.0
2015-Apr-18 05:32N 34°15' E 135°07'0 0.1
2015-Apr-18 04:33N 34°15' E 135°07'0 0.0
2015-Apr-18 03:32N 34°15' E 135°07'0 0.0
2015-Apr-18 02:33N 34°15' E 135°07'0 0.0
2015-Apr-18 01:33N 34°15' E 135°07'1 1.3
2015-Apr-18 00:33N 34°15' E 135°06'0 0.0
2015-Apr-17 23:33N 34°15' E 135°06'0 0.1
2015-Apr-17 22:33N 34°15' E 135°06'0 0.0
2015-Apr-17 21:33N 34°15' E 135°06'0 0.0
2015-Apr-17 20:33N 34°15' E 135°06'0 0.0
2015-Apr-17 19:33N 34°15' E 135°06'0 0.0
2015-Apr-17 18:33N 34°15' E 135°06'0 0.0
2015-Apr-17 17:33N 34°15' E 135°06'0 0.0
2015-Apr-17 16:33N 34°15' E 135°06'0 0.0
2015-Apr-17 15:34N 34°15' E 135°06'0 0.0
2015-Apr-17 14:33N 34°15' E 135°06'0 0.0
2015-Apr-17 13:33N 34°15' E 135°06'6 6.5
2015-Apr-17 12:33N 34°09' E 135°04'  
2015-Apr-10 11:10N 34°54' E 139°43'1212.0
2015-Apr-10 10:12N 34°53' E 139°57'812.3
2015-Apr-10 09:32N 34°58' E 140°06'1312.7
2015-Apr-10 08:32N 35°05' E 140°19'1312.4
2015-Apr-10 07:29N 35°14' E 140°30'1212.3
2015-Apr-10 06:29N 35°23' E 140°40'3210.0
2015-Apr-10 03:14N 35°55' E 140°46'5 6.3
2015-Apr-10 02:27N 35°56' E 140°40'0 0.1
2015-Apr-10 01:21N 35°56' E 140°40'0 0.0
2015-Apr-10 00:32N 35°56' E 140°40'0 0.0
2015-Apr-09 23:32N 35°56' E 140°40'0 0.1
2015-Apr-09 22:31N 35°56' E 140°40'0 0.1
2015-Apr-09 21:32N 35°56' E 140°40'0 0.1
2015-Apr-09 20:30N 35°56' E 140°40'0 0.0
2015-Apr-09 19:33N 35°56' E 140°40'0 0.0
2015-Apr-09 18:33N 35°56' E 140°40'0 0.0
2015-Apr-09 17:31N 35°56' E 140°40'0 0.1
2015-Apr-09 16:32N 35°56' E 140°40'0 0.1
2015-Apr-09 15:33N 35°56' E 140°40'0 0.2
2015-Apr-09 14:29N 35°55' E 140°40'0 0.2
2015-Apr-09 13:33N 35°55' E 140°40'0 0.0
2015-Apr-09 12:31N 35°55' E 140°40'  

Dump ship's entire track history